Time;durP1;ratioP1;P1;durP2;ratioP2;P2;SDS_P1;SDS_P2;PMS_P1;PMS_P2;Temp;Humidity;BMP_temperature;BMP_pressure;BME280_temperature;BME280_humidity;BME280_pressure;Samples;Min_cycle;Max_cycle;Signal;HPM_P1;HPM_P2
2021/06/07 00:00:49;;;;;;;31.95;16.17;;;;;;;11.49;90.81;91191.09;4983417;28;20037;-86
2021/06/07 00:03:14;;;;;;;32.17;16.88;;;;;;;11.42;90.76;91181.19;4983283;28;20091;-86
2021/06/07 00:05:40;;;;;;;35.53;16.27;;;;;;;11.41;91.17;91184.09;4953067;28;20118;-87
2021/06/07 00:08:05;;;;;;;34.53;16.00;;;;;;;11.44;91.14;91186.81;4970602;28;20040;-86
2021/06/07 00:10:31;;;;;;;33.08;16.20;;;;;;;11.42;91.50;91181.19;4989764;28;20029;-87
2021/06/07 00:12:56;;;;;;;27.27;14.77;;;;;;;11.48;91.06;91179.88;4983795;28;20109;-86
2021/06/07 00:15:22;;;;;;;31.75;14.10;;;;;;;11.48;90.96;91182.50;4979951;28;20478;-86
2021/06/07 00:17:48;;;;;;;32.25;15.30;;;;;;;11.49;90.92;91178.78;4949681;28;20030;-86
2021/06/07 00:20:18;;;;;;;31.88;15.32;;;;;;;11.44;90.91;91176.38;4964946;28;20048;-87
2021/06/07 00:22:43;;;;;;;29.98;14.35;;;;;;;11.49;90.87;91178.78;5000041;28;20053;-87
2021/06/07 00:25:09;;;;;;;26.63;13.95;;;;;;;11.54;90.73;91184.88;4985397;28;20026;-86
2021/06/07 00:27:35;;;;;;;32.97;15.15;;;;;;;11.53;90.96;91178.16;4984905;28;20029;-86
2021/06/07 00:30:00;;;;;;;31.75;16.05;;;;;;;11.49;91.12;91176.19;4984017;28;20026;-87
2021/06/07 00:32:25;;;;;;;27.67;14.55;;;;;;;11.49;91.24;91184.00;4984642;28;20064;-85
2021/06/07 00:34:51;;;;;;;29.30;14.77;;;;;;;11.48;91.06;91174.66;4968189;28;20025;-86
2021/06/07 00:37:17;;;;;;;28.38;14.02;;;;;;;11.53;90.81;91180.75;5000868;28;20441;-85
2021/06/07 00:39:42;;;;;;;29.20;15.32;;;;;;;11.61;89.89;91177.25;4968092;28;20034;-86
2021/06/07 00:42:08;;;;;;;26.77;13.93;;;;;;;11.58;90.30;91178.66;4984882;28;20038;-88
2021/06/07 00:44:33;;;;;;;30.42;15.63;;;;;;;11.60;90.40;91170.53;4984839;28;20033;-87
2021/06/07 00:46:59;;;;;;;28.17;14.40;;;;;;;11.59;90.42;91175.00;4984064;28;20029;-86
2021/06/07 00:49:24;;;;;;;31.75;15.70;;;;;;;11.58;90.43;91172.69;4984766;28;20497;-88
2021/06/07 00:51:50;;;;;;;32.65;15.30;;;;;;;11.55;90.43;91173.34;4968647;28;20038;-87
2021/06/07 00:54:15;;;;;;;31.55;16.77;;;;;;;11.48;90.53;91166.84;4985001;28;20022;-84
2021/06/07 00:56:41;;;;;;;25.33;14.60;;;;;;;11.59;90.60;91171.59;4984585;28;20030;-85
2021/06/07 00:59:06;;;;;;;30.70;16.42;;;;;;;11.56;90.59;91174.88;4969263;28;20033;-85
2021/06/07 01:01:32;;;;;;;31.40;16.35;;;;;;;11.49;90.38;91173.56;4985395;28;20030;-87
2021/06/07 01:03:58;;;;;;;33.88;15.95;;;;;;;11.54;90.41;91167.38;4983599;28;20087;-86
2021/06/07 01:06:23;;;;;;;35.95;16.98;;;;;;;11.46;90.64;91168.25;4985582;28;20029;-85
2021/06/07 01:08:49;;;;;;;37.70;16.92;;;;;;;11.45;90.79;91170.09;4969436;28;20130;-87
2021/06/07 01:11:14;;;;;;;34.40;17.10;;;;;;;11.47;90.95;91164.53;4985119;28;20618;-87
2021/06/07 01:13:40;;;;;;;36.53;17.90;;;;;;;11.52;90.40;91169.56;4985762;28;20458;-87
2021/06/07 01:16:05;;;;;;;35.75;17.23;;;;;;;11.46;90.79;91166.41;4994567;28;20010;-89
2021/06/07 01:18:31;;;;;;;32.45;16.30;;;;;;;11.55;90.60;91173.34;4990291;28;20097;-89
2021/06/07 01:20:59;;;;;;;32.75;16.13;;;;;;;11.45;90.68;91164.13;4999989;28;20030;-85
2021/06/07 01:23:25;;;;;;;34.22;17.27;;;;;;;11.44;90.65;91152.91;4982020;28;20038;-86
2021/06/07 01:25:51;;;;;;;35.63;17.80;;;;;;;11.57;90.46;91166.72;4982359;28;20038;-86
2021/06/07 01:28:17;;;;;;;36.65;17.75;;;;;;;11.49;90.70;91159.78;4982605;28;20056;-86
2021/06/07 01:30:45;;;;;;;37.67;16.90;;;;;;;11.47;90.79;91154.84;4982159;28;20030;-86
2021/06/07 01:33:11;;;;;;;38.55;18.30;;;;;;;11.43;90.82;91161.81;4982954;28;20071;-86
2021/06/07 01:35:37;;;;;;;41.83;18.70;;;;;;;11.41;90.90;91158.00;4981515;28;20508;-87
2021/06/07 01:38:03;;;;;;;39.25;18.77;;;;;;;11.41;90.91;91161.41;4965748;28;20036;-88
2021/06/07 01:40:30;;;;;;;37.72;17.98;;;;;;;11.42;91.01;91164.78;4969085;28;20736;-86
2021/06/07 01:42:55;;;;;;;39.85;18.75;;;;;;;11.42;91.13;91154.34;4993947;28;20034;-86
2021/06/07 01:45:23;;;;;;;38.45;18.20;;;;;;;11.43;90.91;91161.81;4982073;28;20021;-87
2021/06/07 01:47:48;;;;;;;37.88;17.48;;;;;;;11.44;90.97;91157.34;4982046;28;20084;-86
2021/06/07 01:50:14;;;;;;;37.72;17.88;;;;;;;11.39;90.67;91154.97;4982550;28;20026;-87
2021/06/07 01:52:45;;;;;;;41.15;19.33;;;;;;;11.47;90.16;91152.25;4981728;28;20033;-88
2021/06/07 01:55:18;;;;;;;40.13;18.90;;;;;;;11.41;90.66;91158.00;4983803;28;20033;-86
2021/06/07 01:57:44;;;;;;;38.80;18.70;;;;;;;11.48;90.46;91147.78;4982971;28;20025;-86
2021/06/07 02:00:20;;;;;;;40.35;18.80;;;;;;;11.43;90.64;91151.38;4998749;28;20029;-88
2021/06/07 02:02:46;;;;;;;43.30;19.50;;;;;;;11.36;90.72;91148.56;4967783;28;20037;-87
2021/06/07 02:05:12;;;;;;;40.38;19.27;;;;;;;11.39;90.81;91144.53;4947909;28;20019;-87
2021/06/07 02:07:43;;;;;;;45.78;20.38;;;;;;;11.46;90.55;91145.50;4968932;28;20022;-86
2021/06/07 02:10:09;;;;;;;43.10;19.23;;;;;;;11.42;91.12;91138.69;4998080;28;20025;-86
2021/06/07 02:12:34;;;;;;;39.95;18.02;;;;;;;11.51;90.53;91141.16;4997689;28;20017;-86
2021/06/07 02:14:59;;;;;;;41.42;19.60;;;;;;;11.43;90.33;91135.72;4982219;28;20021;-87
2021/06/07 02:17:25;;;;;;;41.13;19.75;;;;;;;11.40;90.18;91136.38;4973900;28;20026;-87
2021/06/07 02:19:50;;;;;;;44.10;19.42;;;;;;;11.40;90.37;91136.38;4982531;28;20018;-87
2021/06/07 02:22:15;;;;;;;41.05;19.10;;;;;;;11.43;89.99;91130.50;4981289;28;20377;-86
2021/06/07 02:24:41;;;;;;;41.47;18.05;;;;;;;11.40;90.41;91123.34;4980941;28;20033;-85
2021/06/07 02:27:06;;;;;;;48.03;19.77;;;;;;;11.41;90.61;91132.69;4981746;28;20018;-86
2021/06/07 02:29:32;;;;;;;38.88;17.55;;;;;;;11.46;90.61;91135.06;4980415;28;20044;-86
2021/06/07 02:31:57;;;;;;;41.83;19.10;;;;;;;11.53;90.26;91131.16;4981031;28;20022;-86
2021/06/07 02:34:23;;;;;;;42.90;20.33;;;;;;;11.33;90.18;91136.16;5031340;22;20054;-85
2021/06/07 02:36:48;;;;;;;40.58;18.52;;;;;;;11.35;90.13;91131.38;5000659;28;20049;-86
2021/06/07 02:39:15;;;;;;;41.30;19.65;;;;;;;11.33;90.21;91128.34;4982498;28;20025;-86
2021/06/07 02:41:41;;;;;;;42.65;18.92;;;;;;;11.32;90.49;91128.69;5019453;28;20021;-86
2021/06/07 02:44:07;;;;;;;44.35;19.23;;;;;;;11.38;90.48;91133.34;5020392;28;20025;-86
2021/06/07 02:46:32;;;;;;;39.42;18.02;;;;;;;11.36;90.36;91125.06;5015511;28;20013;-86
2021/06/07 02:48:57;;;;;;;38.70;17.90;;;;;;;11.35;90.91;91123.56;5001586;28;20087;-86
2021/06/07 02:51:23;;;;;;;39.17;18.98;;;;;;;11.34;90.75;91124.66;4994245;28;20029;-86
2021/06/07 02:53:49;;;;;;;42.10;19.88;;;;;;;11.38;90.36;91130.75;5017416;28;20032;-86
2021/06/07 02:56:15;;;;;;;39.47;18.55;;;;;;;11.36;90.51;91130.28;4980089;28;20548;-85
2021/06/07 02:58:40;;;;;;;42.60;19.00;;;;;;;11.34;90.63;91122.06;4985291;28;20042;-87
2021/06/07 03:01:07;;;;;;;35.88;17.42;;;;;;;11.38;90.31;91129.97;5006301;28;20028;-86
2021/06/07 03:03:33;;;;;;;39.90;18.60;;;;;;;11.42;90.05;91121.16;4984060;28;20026;-86
2021/06/07 03:05:59;;;;;;;38.95;18.08;;;;;;;11.36;90.04;91127.69;4985915;28;20029;-87
2021/06/07 03:08:27;;;;;;;34.03;16.50;;;;;;;11.36;90.22;91125.06;4996218;28;20064;-87
2021/06/07 03:10:54;;;;;;;34.42;17.73;;;;;;;11.45;89.75;91123.13;4986594;28;20104;-86
2021/06/07 03:13:20;;;;;;;37.10;17.42;;;;;;;11.39;89.97;91128.88;4975645;28;20046;-86
2021/06/07 03:15:46;;;;;;;39.45;17.63;;;;;;;11.37;90.11;91121.38;4985636;28;20022;-85
2021/06/07 03:18:12;;;;;;;36.75;17.20;;;;;;;11.40;90.48;91131.16;4992389;28;20036;-86
2021/06/07 03:20:37;;;;;;;36.30;16.92;;;;;;;11.42;90.70;91123.03;4984577;28;20081;-86
2021/06/07 03:23:06;;;;;;;35.40;17.80;;;;;;;11.45;90.40;91124.97;5003060;28;20056;-87
2021/06/07 03:25:32;;;;;;;40.25;18.02;;;;;;;11.39;90.51;91132.25;4987227;28;20025;-87
2021/06/07 03:27:57;;;;;;;39.80;18.10;;;;;;;11.35;90.57;91128.78;4976923;28;20112;-87
2021/06/07 03:30:23;;;;;;;38.58;18.83;;;;;;;11.38;90.58;91133.34;4986340;28;20045;-86
2021/06/07 03:32:49;;;;;;;37.67;18.02;;;;;;;11.37;90.38;91136.28;4968508;28;20048;-86
2021/06/07 03:35:15;;;;;;;33.95;17.40;;;;;;;11.36;90.34;91129.53;4995234;28;20029;-86
2021/06/07 03:37:41;;;;;;;40.05;18.75;;;;;;;11.36;90.72;91130.28;4996524;28;20041;-86
2021/06/07 03:40:08;;;;;;;34.85;17.17;;;;;;;11.53;90.00;91128.56;4981889;28;20088;-85
2021/06/07 03:42:33;;;;;;;33.08;16.20;;;;;;;11.36;90.35;91130.28;4969702;28;20040;-86
2021/06/07 03:44:59;;;;;;;38.13;17.33;;;;;;;11.37;90.63;91120.63;4974025;28;20052;-86
2021/06/07 03:47:24;;;;;;;35.55;15.05;;;;;;;11.58;89.34;91125.72;4981872;28;20038;-86
2021/06/07 03:49:49;;;;;;;32.60;15.30;;;;;;;11.42;89.84;91123.03;4990422;28;20075;-87
2021/06/07 03:52:15;;;;;;;31.92;15.48;;;;;;;11.45;90.23;91128.34;5016218;28;20041;-86
2021/06/07 03:54:40;;;;;;;35.08;15.32;;;;;;;11.46;89.79;91132.47;4993120;28;20486;-86
2021/06/07 03:57:06;;;;;;;34.97;16.20;;;;;;;11.34;90.27;91132.50;4981548;28;20026;-85
2021/06/07 03:59:31;;;;;;;33.95;15.95;;;;;;;11.30;90.40;91134.19;4993569;28;20061;-86
2021/06/07 04:02:01;;;;;;;37.35;17.33;;;;;;;11.29;90.05;91132.69;4982309;28;20029;-86
2021/06/07 04:04:27;;;;;;;37.78;16.92;;;;;;;11.30;90.65;91130.84;4985145;28;20049;-85
2021/06/07 04:06:52;;;;;;;37.03;16.67;;;;;;;11.28;90.97;91130.41;4982916;28;20040;-86
2021/06/07 04:09:18;;;;;;;32.15;15.98;;;;;;;11.32;90.60;91129.44;4994693;28;20429;-86
2021/06/07 04:11:43;;;;;;;31.02;15.02;;;;;;;11.40;90.30;91120.72;4984127;28;20030;-85
2021/06/07 04:14:08;;;;;;;30.35;14.50;;;;;;;11.47;89.99;91120.94;4987842;28;20034;-86
2021/06/07 04:16:34;;;;;;;32.13;14.90;;;;;;;11.39;90.57;91121.81;4999447;28;20030;-86
2021/06/07 04:18:59;;;;;;;35.60;15.55;;;;;;;11.42;90.42;91118.56;5003959;28;20025;-86
2021/06/07 04:21:25;;;;;;;27.90;14.93;;;;;;;11.44;90.22;91121.59;4992821;28;20036;-87
2021/06/07 04:23:50;;;;;;;30.65;14.73;;;;;;;11.46;89.89;91124.63;5001036;28;20423;-86
2021/06/07 04:26:15;;;;;;;34.13;15.60;;;;;;;11.46;89.92;91124.63;5002196;28;20037;-86
2021/06/07 04:28:41;;;;;;;29.52;13.90;;;;;;;11.48;90.12;91122.47;4986917;28;20021;-86
2021/06/07 04:31:06;;;;;;;31.48;14.90;;;;;;;11.47;90.18;91128.75;4989952;28;20388;-86
2021/06/07 04:33:32;;;;;;;31.15;15.43;;;;;;;11.56;89.73;91128.66;4989194;28;20036;-87
2021/06/07 04:35:57;;;;;;;32.38;16.67;;;;;;;11.49;90.31;91125.84;4983234;28;20022;-86
2021/06/07 04:38:22;;;;;;;30.55;14.80;;;;;;;11.51;90.15;91125.50;4983688;28;20367;-86
2021/06/07 04:40:48;;;;;;;28.67;14.82;;;;;;;11.50;89.76;91124.75;4984807;28;20030;-86
2021/06/07 04:43:14;;;;;;;35.08;14.77;;;;;;;11.52;90.18;91125.19;4991721;28;20034;-86
2021/06/07 04:45:40;;;;;;;26.70;13.80;;;;;;;11.54;90.29;91127.47;4983425;28;20455;-86
2021/06/07 04:48:06;;;;;;;32.05;14.95;;;;;;;11.52;90.04;91124.41;4978756;28;20022;-86
2021/06/07 04:50:32;;;;;;;29.58;13.95;;;;;;;11.60;89.42;91123.53;4983318;28;20083;-87
2021/06/07 04:53:01;;;;;;;28.17;13.52;;;;;;;11.60;89.50;91120.94;4994663;28;20029;-87
2021/06/07 04:55:37;;;;;;;28.50;14.50;;;;;;;11.61;89.68;91130.28;4984470;28;20049;-86
2021/06/07 04:58:07;;;;;;;29.98;15.73;;;;;;;11.66;89.58;91122.22;5017133;28;20032;-87
2021/06/07 05:00:32;;;;;;;31.85;14.65;;;;;;;11.66;89.27;91122.22;4984787;28;20022;-86
2021/06/07 05:02:58;;;;;;;26.45;13.98;;;;;;;11.64;89.21;91129.63;4994611;28;20542;-85
2021/06/07 05:05:23;;;;;;;31.88;15.02;;;;;;;11.69;89.13;91127.53;4966598;28;20022;-87
2021/06/07 05:07:49;;;;;;;27.33;13.65;;;;;;;11.71;89.14;91124.63;5015054;28;20512;-86
2021/06/07 05:10:15;;;;;;;29.95;13.80;;;;;;;11.70;89.22;91120.50;4985711;28;20025;-86
2021/06/07 05:12:40;;;;;;;26.15;13.55;;;;;;;11.70;88.82;91126.47;4982506;28;20104;-87
2021/06/07 05:15:07;;;;;;;25.23;13.75;;;;;;;11.77;88.92;91123.31;4981357;28;20030;-87
2021/06/07 05:17:32;;;;;;;24.25;13.60;;;;;;;11.80;89.11;91124.47;4981444;28;20030;-87
2021/06/07 05:19:57;;;;;;;27.27;14.15;;;;;;;11.71;88.92;91122.00;4981287;28;20398;-86
2021/06/07 05:22:23;;;;;;;24.98;14.02;;;;;;;11.80;88.98;91127.88;4979832;28;20512;-87
2021/06/07 05:24:48;;;;;;;26.00;13.27;;;;;;;11.80;88.44;91127.88;4981422;28;20397;-87
2021/06/07 05:27:14;;;;;;;25.48;13.45;;;;;;;11.81;88.03;91123.41;4977807;28;20038;-87
2021/06/07 05:29:39;;;;;;;25.60;13.65;;;;;;;11.79;88.38;91131.56;4961967;28;20022;-87
2021/06/07 05:32:05;;;;;;;25.95;13.73;;;;;;;11.75;88.74;91138.53;4980862;28;20034;-87
2021/06/07 05:34:30;;;;;;;23.70;12.93;;;;;;;11.81;88.46;91128.63;4972683;28;20025;-88
2021/06/07 05:36:56;;;;;;;25.40;13.70;;;;;;;11.80;87.82;91125.25;4984588;28;20091;-87
2021/06/07 05:39:21;;;;;;;25.05;13.18;;;;;;;11.81;88.42;91132.00;4984512;28;20394;-87
2021/06/07 05:41:47;;;;;;;25.70;13.15;;;;;;;11.80;88.52;91138.31;4981665;28;20474;-88
2021/06/07 05:44:12;;;;;;;28.45;13.02;;;;;;;11.79;88.52;91138.63;5015366;28;20022;-87
2021/06/07 05:46:38;;;;;;;26.77;13.48;;;;;;;11.90;87.79;91143.09;4981348;28;20040;-87
2021/06/07 05:49:03;;;;;;;22.40;12.57;;;;;;;11.88;88.77;91145.28;5000038;28;20053;-87
2021/06/07 05:51:28;;;;;;;24.65;12.85;;;;;;;11.87;88.66;91140.38;4967138;28;20465;-87
2021/06/07 05:53:54;;;;;;;24.65;12.70;;;;;;;11.91;88.37;91136.78;4982339;28;20026;-88
2021/06/07 05:56:19;;;;;;;24.73;12.00;;;;;;;11.94;88.43;91137.97;4980599;28;20033;-86
2021/06/07 05:58:45;;;;;;;22.17;11.65;;;;;;;11.95;88.71;91137.66;4995006;28;20025;-87
2021/06/07 06:01:10;;;;;;;20.95;11.07;;;;;;;12.05;88.17;91133.03;4984592;28;20030;-86
2021/06/07 06:03:35;;;;;;;21.65;11.35;;;;;;;12.10;87.35;91140.66;4980476;28;20034;-87
2021/06/07 06:06:01;;;;;;;21.27;10.93;;;;;;;12.13;87.71;91137.38;4964064;28;20030;-87
2021/06/07 06:08:26;;;;;;;20.23;10.68;;;;;;;12.17;87.77;91146.09;4992134;28;20033;-86
2021/06/07 06:10:52;;;;;;;21.55;11.63;;;;;;;12.23;87.06;91144.75;4997647;28;20478;-88
2021/06/07 06:13:17;;;;;;;22.42;11.20;;;;;;;12.19;87.48;91138.66;4981767;28;20026;-88
2021/06/07 06:15:42;;;;;;;21.30;10.93;;;;;;;12.31;86.90;91135.25;4996013;28;20092;-85
2021/06/07 06:18:08;;;;;;;20.77;11.23;;;;;;;12.18;87.01;91139.75;5000463;28;20029;-87
2021/06/07 06:20:33;;;;;;;22.98;11.75;;;;;;;12.06;88.04;91147.66;4998494;28;20045;-87
2021/06/07 06:22:59;;;;;;;24.67;11.93;;;;;;;12.11;87.57;91144.78;4997925;28;20072;-86
2021/06/07 06:25:24;;;;;;;23.05;11.88;;;;;;;12.10;87.00;91151.13;4985884;28;20036;-87
2021/06/07 06:27:50;;;;;;;21.85;11.77;;;;;;;12.05;87.71;91144.28;4981052;28;20025;-87
2021/06/07 06:30:21;;;;;;;22.08;11.82;;;;;;;12.10;88.58;91145.88;4997145;28;20028;-86
2021/06/07 06:32:48;;;;;;;21.77;11.95;;;;;;;12.16;87.21;91147.19;4997158;28;20037;-86
2021/06/07 06:35:14;;;;;;;19.45;10.57;;;;;;;12.24;87.22;91146.28;4996769;28;20135;-86
2021/06/07 06:37:41;;;;;;;18.60;10.05;;;;;;;12.27;87.74;91140.41;4980242;28;20514;-86
2021/06/07 06:40:07;;;;;;;20.25;10.43;;;;;;;12.41;87.35;91145.25;4995961;28;20029;-86
2021/06/07 06:42:35;;;;;;;20.30;10.60;;;;;;;12.57;86.31;91142.66;4967605;28;20034;-86
2021/06/07 06:45:00;;;;;;;23.10;12.10;;;;;;;12.49;85.67;91144.34;4976349;28;20018;-87
2021/06/07 06:47:26;;;;;;;22.63;12.35;;;;;;;12.52;85.58;91150.75;4959837;28;20022;-87
2021/06/07 06:49:51;;;;;;;20.05;11.27;;;;;;;12.54;86.23;91148.56;4975675;28;20073;-86
2021/06/07 06:52:17;;;;;;;19.25;10.95;;;;;;;12.60;85.93;91147.22;4962596;28;20853;-86
2021/06/07 06:54:42;;;;;;;18.73;10.88;;;;;;;12.41;86.69;91150.47;4963155;28;20029;-85
2021/06/07 06:57:09;;;;;;;23.17;11.57;;;;;;;12.34;87.26;91145.81;4960822;28;20033;-86
2021/06/07 06:59:34;;;;;;;23.50;12.65;;;;;;;12.20;87.93;91155.88;4950070;28;20100;-86
2021/06/07 07:02:00;;;;;;;22.27;11.23;;;;;;;12.39;87.89;91148.19;4941839;28;20364;-86
2021/06/07 07:04:25;;;;;;;19.90;11.38;;;;;;;12.44;87.20;91150.56;4962154;28;20026;-87
2021/06/07 07:06:51;;;;;;;20.08;10.82;;;;;;;12.55;87.47;91156.06;4956398;28;20034;-85
2021/06/07 07:09:16;;;;;;;19.40;9.98;;;;;;;12.49;86.76;91157.41;4959697;28;20018;-88
2021/06/07 07:11:42;;;;;;;18.13;10.35;;;;;;;12.57;86.40;91159.09;4962460;28;20045;-85
2021/06/07 07:14:07;;;;;;;15.90;9.93;;;;;;;12.53;87.14;91160.09;4973954;28;20022;-86
2021/06/07 07:16:33;;;;;;;17.67;9.75;;;;;;;12.70;87.01;91157.19;4964113;28;20036;-85
2021/06/07 07:18:58;;;;;;;16.63;9.45;;;;;;;12.73;85.98;91153.94;4960062;28;20022;-86
2021/06/07 07:21:23;;;;;;;15.80;8.75;;;;;;;12.76;85.40;91158.50;4944130;28;20041;-86
2021/06/07 07:23:49;;;;;;;18.15;9.32;;;;;;;12.94;85.95;91151.09;4960530;28;20932;-85
2021/06/07 07:26:14;;;;;;;14.80;8.15;;;;;;;12.89;85.67;91162.53;4970339;28;20030;-86
2021/06/07 07:28:41;;;;;;;15.60;9.20;;;;;;;12.99;85.84;91163.16;4968488;28;20045;-86
2021/06/07 07:31:07;;;;;;;14.07;8.38;;;;;;;13.06;85.25;91160.72;4959962;28;20872;-86
2021/06/07 07:33:37;;;;;;;17.45;8.32;;;;;;;13.34;85.37;91158.81;4962994;28;20021;-86
2021/06/07 07:36:07;;;;;;;15.02;8.25;;;;;;;13.31;84.31;91154.25;4961809;28;20497;-86
2021/06/07 07:38:33;;;;;;;13.15;7.70;;;;;;;13.40;84.59;91156.72;4960036;28;20552;-86
2021/06/07 07:40:58;;;;;;;12.68;7.70;;;;;;;13.42;85.26;91164.97;4960758;28;20037;-87
2021/06/07 07:43:24;;;;;;;14.00;7.70;;;;;;;13.39;83.86;91163.03;4976870;28;20117;-86
2021/06/07 07:45:49;;;;;;;11.00;7.13;;;;;;;13.21;83.93;91167.81;4947794;28;20030;-86
2021/06/07 07:48:15;;;;;;;11.60;7.65;;;;;;;13.16;85.21;91173.31;4940884;28;20030;-86
2021/06/07 07:50:40;;;;;;;16.58;8.50;;;;;;;12.99;84.94;91168.38;4957664;28;20069;-86
2021/06/07 07:53:05;;;;;;;14.88;8.15;;;;;;;12.86;85.32;91171.09;4926186;28;20821;-86
2021/06/07 07:55:31;;;;;;;15.13;8.45;;;;;;;13.19;84.84;91171.88;4957809;28;20411;-85
2021/06/07 07:57:58;;;;;;;13.38;8.02;;;;;;;13.15;85.65;91177.03;4968113;28;20037;-87
2021/06/07 08:00:25;;;;;;;14.65;7.82;;;;;;;13.30;84.42;91168.44;4976542;28;20030;-86
2021/06/07 08:02:50;;;;;;;10.45;6.75;;;;;;;13.45;84.37;91174.00;4969337;28;20058;-86
2021/06/07 08:05:16;;;;;;;11.75;7.20;;;;;;;13.50;84.96;91173.75;4943102;28;20120;-87
2021/06/07 08:07:41;;;;;;;12.65;7.43;;;;;;;13.48;83.61;91171.47;4949036;28;20026;-87
2021/06/07 08:10:07;;;;;;;15.30;7.05;;;;;;;13.52;84.45;91174.94;4957819;28;20462;-87
2021/06/07 08:12:34;;;;;;;13.60;7.47;;;;;;;13.57;83.43;91166.06;4974343;28;20030;-87
2021/06/07 08:14:59;;;;;;;11.38;6.88;;;;;;;13.49;84.75;91165.13;4974489;28;20030;-87
2021/06/07 08:17:25;;;;;;;15.82;7.25;;;;;;;13.63;85.12;91169.94;4998112;28;20072;-85
2021/06/07 08:19:50;;;;;;;10.50;6.72;;;;;;;13.47;84.93;91177.06;4982932;28;20023;-86
2021/06/07 08:22:17;;;;;;;9.50;6.43;;;;;;;13.60;84.63;91173.22;4985656;28;20045;-87
2021/06/07 08:24:42;;;;;;;12.07;6.40;;;;;;;13.45;84.04;91169.53;4982695;28;20216;-87
2021/06/07 08:27:08;;;;;;;10.60;6.45;;;;;;;13.65;84.88;91177.47;4990808;28;20028;-87
2021/06/07 08:29:33;;;;;;;9.90;5.70;;;;;;;13.58;84.26;91173.59;4974707;28;20014;-87
2021/06/07 08:31:59;;;;;;;10.48;6.88;;;;;;;13.61;83.78;91170.28;4992807;28;20030;-87
2021/06/07 08:34:24;;;;;;;10.50;6.50;;;;;;;13.44;84.84;91167.25;4981961;28;20028;-88
2021/06/07 08:36:50;;;;;;;12.13;6.82;;;;;;;13.43;84.13;91168.34;5073864;23;20126;-88
2021/06/07 08:39:15;;;;;;;11.63;6.38;;;;;;;13.54;85.67;91175.38;5004994;28;20022;-87
2021/06/07 08:41:41;;;;;;;10.02;6.55;;;;;;;13.51;84.70;91173.41;4984531;28;20025;-88
2021/06/07 08:44:07;;;;;;;8.38;5.53;;;;;;;13.44;84.53;91167.25;4984324;28;20030;-88
2021/06/07 08:46:32;;;;;;;9.73;6.40;;;;;;;13.59;85.67;91175.09;4977621;28;20031;-89
2021/06/07 08:48:58;;;;;;;9.48;6.28;;;;;;;13.58;86.26;91170.97;4995404;28;20471;-89
2021/06/07 08:51:24;;;;;;;9.88;6.00;;;;;;;13.73;85.63;91173.91;4982162;28;20077;-90
2021/06/07 08:53:50;;;;;;;8.95;5.90;;;;;;;13.70;85.59;91174.56;4988525;28;20027;-89
2021/06/07 08:56:16;;;;;;;7.57;4.95;;;;;;;13.61;83.97;91177.38;4976685;28;20030;-89
2021/06/07 08:58:41;;;;;;;7.63;5.03;;;;;;;13.45;84.95;91174.75;4961905;28;20419;-88
2021/06/07 09:01:08;;;;;;;9.35;5.35;;;;;;;13.39;85.39;91171.66;4962210;28;20022;-88
2021/06/07 09:03:34;;;;;;;8.27;5.72;;;;;;;13.45;86.04;91174.00;4972635;28;20057;-88
2021/06/07 09:06:04;;;;;;;10.93;6.70;;;;;;;13.44;85.75;91178.50;4974298;28;20056;-88
2021/06/07 09:08:34;;;;;;;8.55;5.28;;;;;;;13.52;85.25;91185.41;4994297;28;20057;-87
2021/06/07 09:11:10;;;;;;;10.50;6.15;;;;;;;13.43;84.47;91176.19;4979941;28;20033;-88
2021/06/07 09:13:36;;;;;;;9.10;5.93;;;;;;;13.32;84.14;91181.97;4968330;28;20023;-89
2021/06/07 09:16:02;;;;;;;8.48;5.35;;;;;;;13.29;84.13;91181.88;4972740;28;20023;-87
2021/06/07 09:18:41;;;;;;;9.73;5.45;;;;;;;13.25;84.91;91189.63;4975095;28;20034;-87
2021/06/07 09:21:12;;;;;;;11.23;5.13;;;;;;;13.43;85.02;91184.03;4993840;28;20022;-87
2021/06/07 09:23:42;;;;;;;8.00;5.38;;;;;;;13.32;84.95;91178.56;4980798;28;20065;-88
2021/06/07 09:26:23;;;;;;;8.30;5.47;;;;;;;13.62;85.19;91184.88;4990592;28;20037;-88
2021/06/07 09:28:49;;;;;;;10.35;5.70;;;;;;;13.69;84.97;91179.06;4983331;28;20031;-88
2021/06/07 09:31:14;;;;;;;8.45;5.55;;;;;;;13.68;84.48;91188.03;4959874;28;20027;-88
2021/06/07 09:33:40;;;;;;;8.10;5.85;;;;;;;13.66;82.84;91184.22;4979315;28;20031;-88
2021/06/07 09:36:18;;;;;;;5.72;4.07;;;;;;;13.49;84.02;91185.31;4970041;28;20030;-88
2021/06/07 09:38:54;;;;;;;7.30;4.30;;;;;;;13.46;84.62;91178.13;4990287;28;20081;-88
2021/06/07 09:41:20;;;;;;;6.97;4.10;;;;;;;13.46;84.13;91186.75;4989304;28;20086;-88
2021/06/07 09:43:47;;;;;;;6.68;3.97;;;;;;;13.71;85.22;91194.41;4990322;28;20442;-88
2021/06/07 09:46:13;;;;;;;6.47;4.30;;;;;;;13.53;83.93;91186.16;4974067;28;20026;-88
2021/06/07 09:48:38;;;;;;;6.95;4.28;;;;;;;13.54;85.35;91182.47;4973672;28;20046;-88
2021/06/07 09:51:04;;;;;;;4.50;3.08;;;;;;;13.75;84.43;91190.81;4957825;28;20022;-88
2021/06/07 09:53:55;;;;;;;3.92;3.00;;;;;;;13.73;84.33;91190.38;4958049;28;20031;-88
2021/06/07 09:56:21;;;;;;;5.68;3.20;;;;;;;13.84;85.37;91196.59;4988983;28;20778;-88
2021/06/07 09:58:47;;;;;;;5.10;3.22;;;;;;;13.84;84.28;91195.84;4991842;28;20027;-88
2021/06/07 10:01:14;;;;;;;5.35;3.20;;;;;;;13.82;85.73;91204.06;4995132;28;20027;-88
2021/06/07 10:03:48;;;;;;;4.18;3.05;;;;;;;13.66;84.51;91199.94;4978940;28;20134;-88
2021/06/07 10:06:16;;;;;;;4.40;3.00;;;;;;;13.59;84.50;91197.91;4976698;28;20038;-88
2021/06/07 10:08:43;;;;;;;5.82;3.42;;;;;;;13.54;84.83;91198.16;4989854;28;20038;-88
2021/06/07 10:11:40;;;;;;;7.13;3.92;;;;;;;13.25;85.44;91197.50;4957390;28;20026;-88
2021/06/07 10:14:15;;;;;;;8.32;4.68;;;;;;;13.13;85.23;91197.53;4972139;28;20487;-88
2021/06/07 10:16:59;;;;;;;8.45;4.82;;;;;;;13.02;85.88;91204.34;4990687;28;20483;-88
2021/06/07 10:19:35;;;;;;;8.07;4.70;;;;;;;13.20;85.68;91202.94;4979502;28;20487;-88
2021/06/07 10:22:02;;;;;;;6.97;5.03;;;;;;;13.36;85.63;91198.50;4955794;28;20038;-88
2021/06/07 10:24:27;;;;;;;7.68;5.65;;;;;;;13.46;87.47;91199.06;4953576;28;20027;-86
2021/06/07 10:26:53;;;;;;;8.50;5.28;;;;;;;13.65;85.46;91204.41;4954448;28;20038;-86
2021/06/07 10:29:19;;;;;;;9.18;5.85;;;;;;;13.53;84.72;91196.63;4954659;29;20027;-90
2021/06/07 10:31:44;;;;;;;7.43;5.07;;;;;;;13.49;84.88;91195.78;4937515;28;20031;-89
2021/06/07 10:34:10;;;;;;;8.20;5.35;;;;;;;13.84;85.17;91206.31;4937871;29;20024;-90
2021/06/07 10:36:50;;;;;;;8.93;5.95;;;;;;;14.03;86.05;91198.53;4943782;28;20033;-89
2021/06/07 10:39:22;;;;;;;9.00;5.45;;;;;;;13.80;83.07;91195.78;4991431;28;20027;-87
2021/06/07 10:41:56;;;;;;;8.45;5.63;;;;;;;13.84;82.93;91201.84;4964088;28;20102;-89
2021/06/07 10:44:42;;;;;;;9.00;5.72;;;;;;;13.66;83.81;91205.91;4988799;28;20034;-88
2021/06/07 10:47:13;;;;;;;9.75;5.35;;;;;;;13.47;83.40;91203.25;4956577;28;20038;-87
2021/06/07 10:49:40;;;;;;;11.63;6.80;;;;;;;13.25;85.60;91210.56;4963885;28;20026;-87
2021/06/07 10:52:08;;;;;;;12.68;6.57;;;;;;;13.28;85.40;91207.25;4972247;28;20027;-88
2021/06/07 10:54:34;;;;;;;10.25;6.50;;;;;;;13.26;85.12;91206.09;4988177;28;20077;-88
2021/06/07 10:57:21;;;;;;;9.43;5.78;;;;;;;13.23;84.20;91209.34;4979396;28;20177;-87
2021/06/07 10:59:49;;;;;;;10.77;6.25;;;;;;;13.20;85.19;91205.53;4972945;28;20027;-87
2021/06/07 11:02:16;;;;;;;12.77;7.05;;;;;;;13.10;85.04;91203.41;4971367;28;20054;-88
2021/06/07 11:04:41;;;;;;;10.50;6.68;;;;;;;13.05;86.74;91204.44;4961998;28;20067;-88
2021/06/07 11:07:10;;;;;;;14.30;7.47;;;;;;;13.11;85.69;91202.34;4955960;28;20034;-87
2021/06/07 11:09:35;;;;;;;15.60;8.60;;;;;;;13.11;85.99;91202.34;4974743;28;20066;-88
2021/06/07 11:12:03;;;;;;;15.88;8.38;;;;;;;13.07;86.12;91201.47;4975035;28;20037;-87
2021/06/07 11:14:28;;;;;;;13.88;7.65;;;;;;;12.80;86.56;91195.19;4966671;28;20043;-87
2021/06/07 11:16:54;;;;;;;14.40;7.38;;;;;;;13.11;86.80;91197.09;4957430;28;20068;-88
2021/06/07 11:19:20;;;;;;;15.10;8.30;;;;;;;13.16;85.89;91194.22;4964270;28;20494;-87